Time;durP1;ratioP1;P1;durP2;ratioP2;P2;SDS_P1;SDS_P2;PMS_P1;PMS_P2;Temp;Humidity;BMP_temperature;BMP_pressure;BME280_temperature;BME280_humidity;BME280_pressure;Samples;Min_cycle;Max_cycle;Signal;HPM_P1;HPM_P2
2022/10/07 00:00:54;;;;;;;22.37;11.43;;;;;;;10.21;79.19;100052.72;1740031;81;25712;-57
2022/10/07 00:03:23;;;;;;;24.40;12.43;;;;;;;10.22;79.39;100050.27;1740019;82;25899;-57
2022/10/07 00:06:05;;;;;;;26.93;13.32;;;;;;;10.18;79.34;100045.89;1740036;82;25600;-57
2022/10/07 00:08:34;;;;;;;27.17;13.65;;;;;;;10.11;79.23;100043.45;1732410;81;27370;-57
2022/10/07 00:11:07;;;;;;;27.30;13.85;;;;;;;10.00;79.34;100044.55;1730694;82;25684;-57
2022/10/07 00:13:35;;;;;;;22.02;12.90;;;;;;;9.94;79.50;100039.63;1731227;82;25684;-57
2022/10/07 00:16:09;;;;;;;24.55;12.98;;;;;;;9.90;79.48;100044.83;1730898;82;25831;-57
2022/10/07 00:18:36;;;;;;;31.80;14.47;;;;;;;9.87;79.58;100039.89;1730819;82;25650;-57
2022/10/07 00:21:07;;;;;;;25.62;13.00;;;;;;;9.89;79.68;100043.19;1730818;82;25739;-56
2022/10/07 00:23:34;;;;;;;29.77;13.47;;;;;;;9.89;79.45;100045.93;1731180;82;25467;-56
2022/10/07 00:26:03;;;;;;;28.17;14.40;;;;;;;9.88;79.11;100041.53;1730822;82;25621;-57
2022/10/07 00:28:30;;;;;;;24.87;14.07;;;;;;;9.86;79.21;100038.80;1731051;82;25471;-57
2022/10/07 00:31:00;;;;;;;27.07;13.38;;;;;;;9.86;79.15;100039.63;1731571;82;25376;-57
2022/10/07 00:33:32;;;;;;;25.25;14.25;;;;;;;9.78;78.97;100036.06;1730510;82;27378;-57
2022/10/07 00:35:59;;;;;;;27.10;14.38;;;;;;;9.74;79.48;100039.09;1731221;82;25851;-56
2022/10/07 00:38:25;;;;;;;25.30;13.70;;;;;;;9.75;79.50;100037.45;1731335;82;25743;-56
2022/10/07 00:40:52;;;;;;;31.60;14.38;;;;;;;9.70;79.47;100034.70;1730934;82;25713;-57
2022/10/07 00:43:28;;;;;;;27.10;14.70;;;;;;;9.61;79.48;100037.70;1731302;82;25676;-56
2022/10/07 00:45:59;;;;;;;26.23;13.32;;;;;;;9.56;79.69;100033.08;1731252;82;27428;-56
2022/10/07 00:48:31;;;;;;;28.90;13.35;;;;;;;9.52;79.19;100039.63;1731025;82;27157;-57
2022/10/07 00:51:00;;;;;;;25.27;13.65;;;;;;;9.42;79.45;100034.16;1731213;82;25693;-56
2022/10/07 00:53:30;;;;;;;23.98;13.03;;;;;;;9.45;79.72;100027.30;1731224;82;25924;-56
2022/10/07 00:56:00;;;;;;;23.92;13.38;;;;;;;9.49;79.69;100025.66;1731490;82;25448;-56
2022/10/07 00:58:29;;;;;;;27.00;12.43;;;;;;;9.51;79.49;100028.42;1731160;82;26684;-57
2022/10/07 01:00:57;;;;;;;28.17;13.60;;;;;;;9.53;79.55;100015.83;1731154;82;25612;-57
2022/10/07 01:03:24;;;;;;;25.52;14.40;;;;;;;9.53;79.71;100020.73;1731336;82;25463;-56
2022/10/07 01:05:50;;;;;;;27.82;15.23;;;;;;;9.54;79.38;100020.20;1730901;82;25746;-57
2022/10/07 01:08:19;;;;;;;32.73;16.00;;;;;;;9.53;79.29;100013.09;1726664;82;25412;-56
2022/10/07 01:11:22;;;;;;;31.02;15.95;;;;;;;9.51;79.24;100011.17;1723136;82;29481;-56
2022/10/07 01:14:28;;;;;;;28.17;16.02;;;;;;;9.46;79.27;100011.98;1722028;83;25634;-57
2022/10/07 01:17:27;;;;;;;28.27;14.73;;;;;;;9.36;79.33;100004.58;1723388;83;25598;-57
2022/10/07 01:20:35;;;;;;;27.60;13.65;;;;;;;9.29;79.39;100006.77;1723122;83;25736;-56
2022/10/07 01:23:33;;;;;;;25.30;13.15;;;;;;;9.22;79.48;100002.94;1723174;82;25669;-56
2022/10/07 01:26:23;;;;;;;26.00;12.70;;;;;;;9.19;79.60;100004.02;1723252;83;27418;-57
2022/10/07 01:29:00;;;;;;;31.30;14.10;;;;;;;9.14;79.44;100002.09;1723291;83;25593;-56
2022/10/07 01:31:32;;;;;;;23.83;13.05;;;;;;;9.06;79.41;99996.61;1722306;83;25426;-56
2022/10/07 01:34:00;;;;;;;25.62;12.85;;;;;;;9.10;79.58;99995.53;1722667;83;25737;-56
2022/10/07 01:36:27;;;;;;;25.05;13.48;;;;;;;9.11;79.58;99995.27;1723438;83;25704;-56
2022/10/07 01:39:01;;;;;;;25.57;12.68;;;;;;;9.06;78.92;99991.14;1723640;82;26735;-57
2022/10/07 01:41:27;;;;;;;23.35;11.73;;;;;;;8.87;79.03;99990.84;1722799;83;25727;-56
2022/10/07 01:43:56;;;;;;;30.60;14.00;;;;;;;8.71;79.45;99985.85;1705643;83;25781;-56
2022/10/07 01:46:25;;;;;;;26.37;13.85;;;;;;;8.66;80.02;99990.75;1694356;84;25818;-56
2022/10/07 01:48:52;;;;;;;26.10;12.53;;;;;;;8.65;79.96;99979.02;1694439;84;25634;-57
2022/10/07 01:51:23;;;;;;;24.90;12.80;;;;;;;8.66;79.99;99981.19;1698340;83;27673;-56
2022/10/07 01:54:03;;;;;;;25.92;11.88;;;;;;;8.66;79.74;99978.45;1694567;84;25661;-56
2022/10/07 01:57:01;;;;;;;22.48;11.48;;;;;;;8.63;79.78;99984.45;1694551;84;25751;-56
2022/10/07 01:59:58;;;;;;;17.87;10.80;;;;;;;8.59;79.45;99979.27;1693998;84;25845;-56
2022/10/07 02:02:46;;;;;;;18.42;10.03;;;;;;;8.48;79.48;99981.93;1694746;84;25426;-56
2022/10/07 02:05:46;;;;;;;24.80;11.63;;;;;;;8.36;79.72;99975.86;1694569;84;27450;-57
2022/10/07 02:08:36;;;;;;;23.60;11.55;;;;;;;8.37;80.28;99976.13;1697521;84;25441;-56
2022/10/07 02:11:14;;;;;;;22.70;12.47;;;;;;;8.41;80.34;99974.53;1701510;84;25609;-56
2022/10/07 02:14:13;;;;;;;22.07;12.05;;;;;;;8.35;80.00;99965.47;1701648;84;25788;-56
2022/10/07 02:16:56;;;;;;;22.37;11.57;;;;;;;8.34;80.32;99971.20;1702154;84;25438;-56
2022/10/07 02:19:38;;;;;;;22.13;12.73;;;;;;;8.32;79.96;99970.09;1700392;84;27494;-56
2022/10/07 02:22:07;;;;;;;22.70;12.10;;;;;;;8.18;79.87;99971.15;1701625;84;25616;-56
2022/10/07 02:24:37;;;;;;;23.62;12.60;;;;;;;8.02;80.24;99966.97;1714420;82;25793;-56
2022/10/07 02:27:10;;;;;;;23.77;13.08;;;;;;;7.98;80.63;99954.11;1731114;82;26327;-57
2022/10/07 02:29:39;;;;;;;24.80;13.55;;;;;;;7.99;80.89;99950.28;1702140;82;25801;-57
2022/10/07 02:32:12;;;;;;;22.30;13.10;;;;;;;8.00;80.85;99943.75;1729794;82;28235;-56
2022/10/07 02:34:42;;;;;;;22.02;12.07;;;;;;;7.99;80.39;99954.38;1731213;82;25470;-56
2022/10/07 02:37:23;;;;;;;25.02;13.55;;;;;;;7.94;80.93;99953.80;1731205;82;25636;-56
2022/10/07 02:39:53;;;;;;;22.77;12.68;;;;;;;8.01;81.08;99958.47;1730901;82;26066;-56
2022/10/07 02:43:10;;;;;;;21.68;12.60;;;;;;;8.02;80.40;99950.59;1731549;82;25487;-56
2022/10/07 02:46:03;;;;;;;23.20;12.65;;;;;;;7.94;80.39;99956.53;1730401;82;28159;-56
2022/10/07 02:48:40;;;;;;;24.77;13.18;;;;;;;7.96;80.98;99953.00;1726761;82;25973;-57
2022/10/07 02:51:17;;;;;;;25.92;13.70;;;;;;;7.99;81.04;99951.64;1717703;82;25627;-57
2022/10/07 02:53:49;;;;;;;22.75;13.55;;;;;;;7.93;80.96;99942.61;1717226;82;25768;-57
2022/10/07 02:56:22;;;;;;;23.73;13.40;;;;;;;7.89;80.97;99945.03;1718790;82;25523;-57
2022/10/07 02:58:49;;;;;;;21.75;12.60;;;;;;;7.86;81.09;99948.29;1714889;82;27392;-56
2022/10/07 03:01:20;;;;;;;24.77;13.38;;;;;;;7.83;81.06;99943.92;1718551;82;27153;-56
2022/10/07 03:03:46;;;;;;;23.10;12.55;;;;;;;7.84;81.21;99948.28;1715224;82;25718;-57
2022/10/07 03:06:14;;;;;;;24.27;13.03;;;;;;;7.84;81.04;99946.39;1717329;82;26445;-56
2022/10/07 03:08:41;;;;;;;23.45;12.90;;;;;;;7.88;81.09;99938.48;1719281;82;25785;-56
2022/10/07 03:11:08;;;;;;;20.52;12.47;;;;;;;7.91;81.20;99935.22;1723789;81;28324;-56
2022/10/07 03:13:34;;;;;;;24.10;13.93;;;;;;;7.93;80.81;99934.42;1725997;82;25753;-56
2022/10/07 03:16:05;;;;;;;26.02;13.20;;;;;;;7.98;80.81;99931.73;1724214;82;25742;-56
2022/10/07 03:18:29;;;;;;;26.87;13.58;;;;;;;8.01;80.91;99924.34;1721568;82;25724;-56
2022/10/07 03:20:59;;;;;;;24.82;13.68;;;;;;;8.03;80.49;99930.38;1723307;82;25785;-56
2022/10/07 03:23:32;;;;;;;23.60;14.20;;;;;;;7.94;80.19;99929.80;1724005;81;28420;-56
2022/10/07 03:25:58;;;;;;;27.62;15.55;;;;;;;7.83;80.78;99931.08;1724784;82;25475;-57
2022/10/07 03:28:27;;;;;;;27.90;15.60;;;;;;;7.80;81.21;99927.52;1724695;82;25680;-57
2022/10/07 03:30:56;;;;;;;32.25;15.43;;;;;;;7.77;81.27;99928.03;1723124;82;25741;-56
2022/10/07 03:33:24;;;;;;;22.30;14.15;;;;;;;7.76;81.24;99921.78;1724013;82;25285;-57
2022/10/07 03:35:50;;;;;;;25.02;14.18;;;;;;;7.74;81.29;99917.11;1725837;82;25958;-57
2022/10/07 03:38:16;;;;;;;24.18;13.30;;;;;;;7.74;81.34;99910.30;1725905;82;26105;-57
2022/10/07 03:40:44;;;;;;;22.50;13.30;;;;;;;7.77;81.38;99911.13;1724568;82;25378;-57
2022/10/07 03:43:10;;;;;;;22.32;13.40;;;;;;;7.78;81.29;99910.59;1722847;82;25810;-57
2022/10/07 03:45:50;;;;;;;23.90;13.70;;;;;;;7.82;81.42;99906.78;1718210;82;25712;-57
2022/10/07 03:48:17;;;;;;;22.40;13.87;;;;;;;7.87;81.22;99909.02;1732169;82;27324;-57
2022/10/07 03:50:51;;;;;;;25.82;13.50;;;;;;;7.80;80.47;99900.78;1739309;82;25656;-56
2022/10/07 03:53:18;;;;;;;27.67;14.45;;;;;;;7.62;80.80;99905.57;1739722;81;25473;-57
2022/10/07 03:55:45;;;;;;;22.07;13.88;;;;;;;7.57;81.56;99899.54;1740106;82;25761;-57
2022/10/07 03:58:12;;;;;;;25.55;14.07;;;;;;;7.63;81.70;99899.05;1740267;82;25461;-56
2022/10/07 04:00:39;;;;;;;26.93;14.83;;;;;;;7.65;81.44;99902.32;1740042;81;28312;-57
2022/10/07 04:03:06;;;;;;;25.75;14.85;;;;;;;7.63;81.22;99899.05;1739702;81;26330;-56
2022/10/07 04:05:35;;;;;;;26.12;14.63;;;;;;;7.57;81.40;99894.09;1739954;82;25663;-56
2022/10/07 04:08:06;;;;;;;22.67;13.15;;;;;;;7.57;81.43;99892.72;1738641;82;25721;-57
2022/10/07 04:10:33;;;;;;;23.30;13.08;;;;;;;7.47;81.10;99882.58;1731095;82;25431;-56
2022/10/07 04:12:59;;;;;;;22.32;13.45;;;;;;;7.33;81.30;99884.11;1730940;82;27437;-56
2022/10/07 04:15:26;;;;;;;20.72;12.73;;;;;;;7.28;81.56;99876.70;1731394;82;25644;-56
2022/10/07 04:17:58;;;;;;;23.95;13.55;;;;;;;7.26;81.68;99868.78;1731005;82;25451;-56
2022/10/07 04:20:25;;;;;;;24.32;12.93;;;;;;;7.33;81.82;99873.20;1731048;82;25899;-56
2022/10/07 04:22:52;;;;;;;23.87;14.43;;;;;;;7.40;81.76;99874.61;1731596;82;25411;-62
2022/10/07 04:25:33;;;;;;;24.23;14.15;;;;;;;7.43;81.76;99867.84;1731380;82;27399;-62
2022/10/07 04:28:05;;;;;;;25.55;13.88;;;;;;;7.42;81.65;99872.98;1730984;82;25706;-60
2022/10/07 04:30:35;;;;;;;23.62;14.70;;;;;;;7.38;81.32;99864.53;1730919;82;25713;-62
2022/10/07 04:33:01;;;;;;;30.37;15.40;;;;;;;7.14;81.65;99848.53;1731133;82;25704;-61
2022/10/07 04:35:28;;;;;;;26.37;14.43;;;;;;;7.14;81.65;99848.53;1731035;82;25715;-61
2022/10/07 04:37:54;;;;;;;26.80;15.53;;;;;;;7.20;82.00;99859.48;1730960;82;27397;-60
2022/10/07 04:40:22;;;;;;;29.98;14.98;;;;;;;7.22;81.96;99858.13;1702058;82;25544;-62
2022/10/07 04:45:36;;;;;;;26.25;14.05;;;;;;;7.19;81.31;99864.11;1730938;82;25575;-61
2022/10/07 04:48:07;;;;;;;25.43;14.05;;;;;;;7.06;81.59;99868.11;1731035;82;25673;-62
2022/10/07 04:50:46;;;;;;;22.15;13.13;;;;;;;6.96;82.13;99859.30;1731225;82;27464;-62
2022/10/07 04:53:15;;;;;;;26.33;14.00;;;;;;;6.87;82.21;99861.68;1731106;82;25412;-63
2022/10/07 04:55:46;;;;;;;23.18;13.68;;;;;;;6.86;82.68;99853.77;1730933;82;25618;-63
2022/10/07 04:58:14;;;;;;;28.85;13.53;;;;;;;6.94;83.02;99856.00;1730408;82;26568;-62
2022/10/07 05:00:44;;;;;;;24.63;14.30;;;;;;;7.03;83.03;99855.80;1731247;82;25435;-61
2022/10/07 05:03:13;;;;;;;27.20;15.38;;;;;;;7.03;82.49;99861.25;1730929;82;28341;-62
2022/10/07 05:05:45;;;;;;;27.58;14.98;;;;;;;6.94;82.59;99856.56;1731159;82;25885;-63
2022/10/07 05:08:13;;;;;;;30.62;16.93;;;;;;;6.97;82.94;99855.48;1730954;82;25605;-62
2022/10/07 05:10:41;;;;;;;24.92;15.18;;;;;;;6.94;83.02;99852.47;1730918;82;25843;-62
2022/10/07 05:13:12;;;;;;;26.25;15.45;;;;;;;6.96;83.45;99857.10;1731178;82;25522;-58
2022/10/07 05:15:50;;;;;;;23.02;14.83;;;;;;;7.02;83.44;99859.62;1731164;82;27531;-57
2022/10/07 05:18:18;;;;;;;26.93;14.68;;;;;;;7.11;83.83;99850.41;1731268;82;25312;-57
2022/10/07 05:20:46;;;;;;;28.20;15.38;;;;;;;7.21;83.82;99854.30;1731309;82;25499;-56
2022/10/07 05:23:18;;;;;;;23.05;13.70;;;;;;;7.24;83.72;99849.16;1730925;82;27034;-57
2022/10/07 05:25:46;;;;;;;22.67;14.15;;;;;;;7.26;83.89;99842.88;1731476;82;25589;-56
2022/10/07 05:28:14;;;;;;;26.40;14.05;;;;;;;7.33;84.30;99841.84;1731274;82;28412;-57
2022/10/07 05:30:41;;;;;;;23.75;14.47;;;;;;;7.49;85.01;99840.05;1730823;82;25474;-57
2022/10/07 05:33:09;;;;;;;25.95;15.05;;;;;;;7.60;85.42;99839.00;1731410;82;25706;-57
2022/10/07 05:35:35;;;;;;;25.30;14.75;;;;;;;7.72;86.30;99846.16;1731132;82;25798;-57
2022/10/07 05:38:02;;;;;;;30.85;14.53;;;;;;;7.80;86.80;99844.84;1731700;82;25651;-57
2022/10/07 05:40:29;;;;;;;26.57;14.20;;;;;;;7.94;86.66;99849.27;1731115;82;27862;-57
2022/10/07 05:42:55;;;;;;;34.27;15.63;;;;;;;8.04;87.08;99843.84;1731122;82;25626;-57
2022/10/07 05:45:22;;;;;;;31.15;15.58;;;;;;;8.14;87.32;99843.05;1730957;82;25704;-57
2022/10/07 05:47:48;;;;;;;27.00;15.03;;;;;;;8.25;87.39;99843.37;1730841;82;25780;-57
2022/10/07 05:50:15;;;;;;;28.60;15.23;;;;;;;8.43;87.46;99854.07;1730916;82;25479;-58
2022/10/07 05:52:44;;;;;;;30.35;15.60;;;;;;;8.59;87.44;99846.73;1713993;82;27499;-57
2022/10/07 05:55:09;;;;;;;25.85;13.35;;;;;;;8.78;88.30;99852.52;1701401;84;25611;-57
2022/10/07 05:57:38;;;;;;;19.87;10.72;;;;;;;8.84;87.77;99845.94;1701656;84;25469;-58
2022/10/07 06:00:06;;;;;;;23.77;13.25;;;;;;;8.86;88.32;99843.76;1701534;84;25679;-57
2022/10/07 06:02:33;;;;;;;25.88;13.78;;;;;;;8.83;89.19;99837.47;1701845;84;25484;-58
2022/10/07 06:05:00;;;;;;;23.10;12.05;;;;;;;8.81;89.60;99832.81;1701718;84;27399;-57
2022/10/07 06:07:26;;;;;;;21.87;12.30;;;;;;;8.80;90.22;99835.84;1701767;84;25606;-57
2022/10/07 06:15:22;;;;;;;22.70;12.53;;;;;;;8.95;90.19;99838.55;1623729;88;25754;-58
2022/10/07 06:17:48;;;;;;;27.37;16.17;;;;;;;8.97;90.29;99836.38;1623689;88;27507;-59
2022/10/07 06:20:15;;;;;;;26.15;14.65;;;;;;;9.02;90.06;99841.03;1623561;88;25782;-58
2022/10/07 06:22:43;;;;;;;28.12;15.60;;;;;;;9.12;90.15;99843.75;1623718;88;25831;-58
2022/10/07 06:25:09;;;;;;;28.02;14.55;;;;;;;9.26;90.08;99844.55;1623777;88;27066;-58
2022/10/07 06:27:36;;;;;;;26.77;14.20;;;;;;;9.44;89.76;99846.45;1623698;88;25570;-58
2022/10/07 06:30:03;;;;;;;24.65;13.78;;;;;;;9.54;89.65;99845.06;1623698;88;27498;-58
2022/10/07 06:32:31;;;;;;;26.93;14.93;;;;;;;9.62;89.42;99845.84;1623891;88;25793;-58
2022/10/07 06:34:58;;;;;;;25.70;14.35;;;;;;;9.75;89.41;99843.62;1623686;88;25506;-57
2022/10/07 06:37:24;;;;;;;23.55;13.22;;;;;;;9.89;89.41;99843.31;1623565;88;25763;-59
2022/10/07 06:39:51;;;;;;;24.98;14.45;;;;;;;10.00;89.16;99843.27;1623846;88;25866;-59
2022/10/07 06:42:17;;;;;;;22.27;13.93;;;;;;;10.08;89.46;99844.06;1624028;88;27458;-60
2022/10/07 06:44:43;;;;;;;22.90;14.20;;;;;;;10.19;89.43;99845.38;1623724;88;25739;-58
2022/10/07 06:47:10;;;;;;;22.13;13.40;;;;;;;10.33;89.16;99843.64;1664749;84;25687;-58
2022/10/07 06:49:37;;;;;;;25.75;14.75;;;;;;;10.44;89.31;99837.55;1694183;84;25749;-58
2022/10/07 06:52:03;;;;;;;25.32;14.45;;;;;;;10.54;89.30;99834.77;1694184;84;25685;-58
2022/10/07 06:54:30;;;;;;;25.37;14.35;;;;;;;10.69;88.88;99830.84;1694675;84;26765;-58
2022/10/07 06:56:56;;;;;;;20.35;12.07;;;;;;;10.76;88.72;99826.67;1693969;84;25626;-58
2022/10/07 06:59:23;;;;;;;18.52;10.98;;;;;;;10.83;88.51;99822.23;1694658;84;25643;-59
2022/10/07 07:01:49;;;;;;;19.95;11.08;;;;;;;10.76;89.05;99822.55;1694075;84;25863;-58
2022/10/07 07:04:16;;;;;;;22.35;13.68;;;;;;;10.71;89.21;99817.09;1694031;84;25504;-58
2022/10/07 07:06:43;;;;;;;21.37;14.25;;;;;;;10.70;89.93;99823.70;1694356;84;26869;-58
2022/10/07 07:09:10;;;;;;;22.48;14.18;;;;;;;10.72;90.23;99822.05;1694184;84;25424;-59
2022/10/07 07:11:36;;;;;;;24.37;13.43;;;;;;;10.77;90.49;99819.27;1699890;83;25473;-59
2022/10/07 07:14:11;;;;;;;23.70;12.85;;;;;;;10.81;90.24;99819.50;1701771;84;25807;-59
2022/10/07 07:16:39;;;;;;;25.90;14.55;;;;;;;10.91;90.55;99812.01;1701769;84;25630;-62
2022/10/07 07:19:08;;;;;;;24.43;14.63;;;;;;;10.98;90.29;99815.80;1701995;84;27482;-61
2022/10/07 07:21:37;;;;;;;23.52;13.05;;;;;;;11.13;89.99;99818.95;1701900;84;25458;-62
2022/10/07 07:24:05;;;;;;;22.93;12.88;;;;;;;11.19;89.78;99804.63;1702068;84;25444;-62
2022/10/07 07:26:31;;;;;;;23.35;12.70;;;;;;;11.14;89.95;99807.44;1701882;84;25725;-63
2022/10/07 07:29:01;;;;;;;21.95;13.30;;;;;;;11.18;89.60;99805.74;1701603;84;25692;-59
2022/10/07 07:31:31;;;;;;;19.20;11.27;;;;;;;11.35;90.04;99789.38;1701940;84;27468;-60
2022/10/07 07:34:02;;;;;;;24.15;13.18;;;;;;;11.35;90.04;99789.38;1701812;84;25738;-59
2022/10/07 07:36:32;;;;;;;19.95;11.50;;;;;;;11.42;89.56;99801.66;1701733;84;25950;-58
2022/10/07 07:39:02;;;;;;;22.77;13.87;;;;;;;11.48;89.29;99799.66;1702073;84;25646;-58
2022/10/07 07:41:33;;;;;;;23.42;13.15;;;;;;;11.55;89.55;99800.70;1702026;84;25475;-58
2022/10/07 07:44:03;;;;;;;24.05;14.25;;;;;;;11.60;89.27;99799.82;1702080;84;27481;-58
2022/10/07 07:46:35;;;;;;;25.68;14.50;;;;;;;11.58;89.38;99798.73;1701809;84;25458;-59
2022/10/07 07:49:01;;;;;;;19.62;11.70;;;;;;;11.63;90.03;99796.49;1701874;84;25493;-57
2022/10/07 07:51:28;;;;;;;24.80;13.78;;;;;;;11.80;89.72;99799.56;1701782;84;26652;-59
2022/10/07 07:53:55;;;;;;;22.30;13.25;;;;;;;11.97;88.82;99799.62;1701709;84;25473;-58
2022/10/07 07:56:22;;;;;;;20.90;12.82;;;;;;;12.05;87.98;99800.90;1701869;84;27455;-59
2022/10/07 07:58:48;;;;;;;24.18;14.15;;;;;;;12.11;88.55;99799.75;1701858;84;25451;-58
2022/10/07 08:01:17;;;;;;;23.35;13.25;;;;;;;12.27;87.65;99796.79;1701501;84;25747;-58
2022/10/07 08:03:46;;;;;;;18.10;10.40;;;;;;;12.45;87.10;99789.65;1701855;84;26109;-57
2022/10/07 08:06:16;;;;;;;21.30;13.80;;;;;;;12.58;86.20;99789.44;1701953;84;25699;-58
2022/10/07 08:08:43;;;;;;;21.23;13.90;;;;;;;12.86;86.75;99792.29;1702168;84;28480;-58
2022/10/07 08:11:16;;;;;;;19.60;12.47;;;;;;;13.04;85.45;99793.36;1701298;83;25553;-59
2022/10/07 08:13:44;;;;;;;22.62;14.23;;;;;;;13.21;84.28;99787.83;1701653;84;25445;-58
2022/10/07 08:16:16;;;;;;;22.35;14.30;;;;;;;13.43;83.67;99784.95;1701746;84;25723;-62
2022/10/07 08:18:45;;;;;;;21.07;13.35;;;;;;;13.53;83.48;99780.64;1701875;84;25517;-62
2022/10/07 08:21:12;;;;;;;22.35;15.05;;;;;;;13.63;82.70;99780.19;1701908;84;28026;-63
2022/10/07 08:23:40;;;;;;;21.33;14.68;;;;;;;13.75;82.46;99781.03;1701716;84;25653;-59
2022/10/07 08:26:08;;;;;;;20.10;13.53;;;;;;;13.94;82.29;99772.66;1701667;84;25632;-60
2022/10/07 08:28:36;;;;;;;21.23;14.38;;;;;;;14.24;81.25;99775.84;1701631;84;25907;-59
2022/10/07 08:31:06;;;;;;;17.42;13.28;;;;;;;14.45;81.82;99778.11;1701891;84;25437;-59
2022/10/07 08:33:36;;;;;;;21.12;14.00;;;;;;;14.90;80.36;99769.05;1702136;84;27327;-59
2022/10/07 08:36:05;;;;;;;16.17;11.73;;;;;;;15.38;79.22;99779.68;1701755;84;25703;-59
2022/10/07 08:38:38;;;;;;;19.90;13.65;;;;;;;15.77;78.07;99772.48;1701849;84;25757;-59
2022/10/07 08:41:34;;;;;;;21.05;14.20;;;;;;;16.20;76.20;99774.28;1701955;84;25651;-60
2022/10/07 08:44:27;;;;;;;19.90;13.18;;;;;;;16.38;76.89;99768.77;1701886;84;25686;-59
2022/10/07 08:47:22;;;;;;;19.17;14.30;;;;;;;16.37;75.08;99768.51;1701538;84;29546;-59
2022/10/07 08:50:03;;;;;;;18.60;13.20;;;;;;;16.49;75.59;99769.27;1700582;84;25737;-59
2022/10/07 08:52:41;;;;;;;18.27;13.58;;;;;;;16.51;73.09;99762.25;1702023;84;25639;-58
2022/10/07 08:55:28;;;;;;;17.95;12.75;;;;;;;16.47;75.16;99759.08;1697222;84;25599;-59
2022/10/07 08:58:21;;;;;;;18.65;12.53;;;;;;;16.35;72.96;99761.92;1701449;84;25683;-59
2022/10/07 09:01:11;;;;;;;16.93;12.95;;;;;;;16.39;73.59;99763.48;1699522;84;27630;-61
2022/10/07 09:03:43;;;;;;;17.42;12.63;;;;;;;16.62;73.98;99761.91;1701900;84;25451;-59
2022/10/07 09:06:27;;;;;;;19.12;13.58;;;;;;;16.92;72.75;99757.30;1701239;84;25618;-58
2022/10/07 09:08:58;;;;;;;18.37;13.88;;;;;;;16.95;70.55;99753.63;1700740;84;25760;-60
2022/10/07 09:11:25;;;;;;;18.30;13.22;;;;;;;17.24;72.70;99753.48;1702967;84;25802;-58
2022/10/07 09:14:03;;;;;;;17.42;12.82;;;;;;;17.40;70.82;99748.19;1705133;83;27454;-59
2022/10/07 09:16:36;;;;;;;18.62;13.32;;;;;;;17.68;70.57;99741.59;1702125;84;25696;-59
2022/10/07 09:19:04;;;;;;;16.20;12.68;;;;;;;17.57;69.42;99744.52;1705033;84;25698;-59
2022/10/07 09:21:50;;;;;;;18.62;12.90;;;;;;;17.55;69.51;99735.72;1705055;84;26453;-59
2022/10/07 09:24:23;;;;;;;16.87;11.88;;;;;;;17.72;70.24;99733.42;1705265;84;25773;-59
2022/10/07 09:26:54;;;;;;;15.68;12.93;;;;;;;18.11;69.03;99724.22;1704723;84;27448;-58
2022/10/07 09:29:27;;;;;;;15.93;12.58;;;;;;;18.28;68.03;99722.67;1678782;84;25596;-59
2022/10/07 09:31:55;;;;;;;16.97;12.13;;;;;;;18.71;67.11;99725.36;1705202;83;25629;-59
2022/10/07 09:34:28;;;;;;;15.30;10.95;;;;;;;19.30;66.34;99719.81;1705045;84;26498;-59
2022/10/07 09:37:20;;;;;;;17.82;12.80;;;;;;;19.89;64.35;99718.27;1705000;83;25596;-59
2022/10/07 09:39:51;;;;;;;14.25;10.82;;;;;;;20.55;64.59;99705.05;1704676;83;27435;-59
2022/10/07 09:42:38;;;;;;;14.05;11.10;;;;;;;21.24;62.04;99706.62;1703725;84;25463;-59
2022/10/07 09:45:21;;;;;;;16.80;11.85;;;;;;;21.71;62.70;99703.52;1704086;84;25626;-58
2022/10/07 09:47:55;;;;;;;15.50;12.03;;;;;;;22.37;58.76;99706.30;1688411;84;25707;-58
2022/10/07 09:50:36;;;;;;;14.58;12.45;;;;;;;22.31;58.44;99698.20;1704836;83;25602;-60
2022/10/07 09:53:04;;;;;;;14.55;11.57;;;;;;;22.56;58.17;99700.69;1703409;84;26707;-58
2022/10/07 09:55:40;;;;;;;13.53;11.38;;;;;;;22.62;56.00;99696.23;1704967;83;25461;-59
2022/10/07 09:58:29;;;;;;;13.22;11.65;;;;;;;22.54;57.07;99694.65;1705089;83;25488;-62
2022/10/07 10:00:59;;;;;;;13.65;10.68;;;;;;;22.80;56.36;99693.15;1705030;83;26160;-63
2022/10/07 10:03:35;;;;;;;13.10;10.82;;;;;;;23.29;53.92;99683.76;1704783;84;25504;-62
2022/10/07 10:06:07;;;;;;;14.00;10.13;;;;;;;23.51;55.50;99681.91;1678662;84;27284;-62
2022/10/07 10:08:43;;;;;;;11.60;10.40;;;;;;;24.03;55.18;99681.40;1704252;84;25655;-61
2022/10/07 10:11:30;;;;;;;12.10;10.85;;;;;;;24.37;50.66;99682.84;1703462;83;25747;-59
2022/10/07 10:13:54;;;;;;;11.80;10.23;;;;;;;24.52;53.54;99675.38;1692895;84;25677;-57
2022/10/07 10:16:39;;;;;;;13.50;10.08;;;;;;;25.04;51.22;99673.89;1694134;84;25691;-57
2022/10/07 10:19:24;;;;;;;11.25;9.05;;;;;;;25.25;51.70;99673.25;1694028;84;26104;-60
2022/10/07 10:21:55;;;;;;;10.53;9.45;;;;;;;25.28;49.88;99668.85;1694367;84;25639;-58
2022/10/07 10:27:26;;;;;;;10.28;8.65;;;;;;;25.87;48.91;99658.18;1694109;84;25811;-61
2022/10/07 10:30:09;;;;;;;9.23;8.23;;;;;;;26.34;48.69;99656.17;1694488;84;25611;-60
2022/10/07 10:33:14;;;;;;;10.63;8.38;;;;;;;26.35;46.59;99650.75;1694126;84;27526;-60
2022/10/07 10:35:55;;;;;;;9.68;8.68;;;;;;;26.16;45.92;99643.43;1693988;84;25503;-60
2022/10/07 10:38:44;;;;;;;9.65;8.68;;;;;;;26.42;47.50;99632.49;1694564;84;25580;-58
2022/10/07 10:41:22;;;;;;;10.48;8.73;;;;;;;26.55;47.13;99630.11;1694251;84;25430;-59
2022/10/07 10:44:03;;;;;;;10.78;8.18;;;;;;;26.87;46.07;99623.48;1694469;84;25598;-58
2022/10/07 10:46:53;;;;;;;10.85;8.80;;;;;;;27.25;45.21;99628.09;1694321;84;26827;-60
2022/10/07 10:49:31;;;;;;;9.85;8.23;;;;;;;27.57;45.63;99615.13;1694219;84;25671;-58
2022/10/07 10:52:16;;;;;;;11.80;7.75;;;;;;;27.69;43.70;99609.71;1694356;84;25418;-61
2022/10/07 10:55:12;;;;;;;9.53;8.43;;;;;;;27.79;43.31;99608.05;1693940;84;25497;-58
2022/10/07 10:57:49;;;;;;;9.53;7.47;;;;;;;28.08;43.15;99607.90;1694076;84;25669;-58
2022/10/07 11:00:20;;;;;;;9.03;7.90;;;;;;;28.56;44.41;99596.52;1694098;84;29479;-57
2022/10/07 11:03:25;;;;;;;7.92;7.10;;;;;;;29.16;41.54;99599.05;1693907;84;26138;-57
2022/10/07 11:05:54;;;;;;;7.70;6.78;;;;;;;28.76;40.81;99591.75;1694253;84;25630;-57
2022/10/07 11:08:32;;;;;;;8.05;6.50;;;;;;;28.60;40.24;99580.99;1694545;84;25732;-58
2022/10/07 11:11:14;;;;;;;7.60;6.80;;;;;;;28.26;41.33;99582.42;1694197;84;25650;-57
2022/10/07 11:13:55;;;;;;;6.85;6.12;;;;;;;28.38;41.22;99575.52;1676295;85;27647;-57
2022/10/07 11:16:39;;;;;;;7.10;6.40;;;;;;;28.45;41.32;99563.99;1676159;85;25695;-57
2022/10/07 11:19:19;;;;;;;6.42;5.78;;;;;;;28.73;40.38;99563.56;1676262;85;25683;-57
2022/10/07 11:21:52;;;;;;;5.80;4.90;;;;;;;28.90;39.11;99561.80;1676646;85;25693;-57
2022/10/07 11:24:29;;;;;;;6.28;5.67;;;;;;;28.48;39.65;99555.52;1676614;85;25675;-57
2022/10/07 11:27:18;;;;;;;7.97;5.28;;;;;;;28.42;40.29;99554.36;1676626;85;28124;-58
2022/10/07 11:30:09;;;;;;;6.15;3.95;;;;;;;28.77;39.05;99546.00;1676289;85;25655;-57
2022/10/07 11:33:07;;;;;;;5.28;3.90;;;;;;;28.98;39.05;99545.00;1669400;85;25523;-57
2022/10/07 11:35:45;;;;;;;5.28;4.20;;;;;;;29.63;38.92;99543.48;1675703;85;25700;-58
2022/10/07 11:38:16;;;;;;;8.98;4.67;;;;;;;30.12;37.16;99533.91;1676328;85;25711;-58
2022/10/07 11:41:15;;;;;;;5.92;4.05;;;;;;;30.42;36.71;99531.42;1676814;85;28281;-57
2022/10/07 11:43:45;;;;;;;4.12;3.50;;;;;;;30.39;36.85;99528.86;1676618;85;25505;-58
2022/10/07 11:46:26;;;;;;;6.58;3.83;;;;;;;29.89;37.04;99521.94;1676302;85;25652;-58
2022/10/07 11:49:03;;;;;;;5.55;4.17;;;;;;;30.25;36.98;99517.80;1676605;85;25773;-58
2022/10/07 11:51:56;;;;;;;7.28;4.15;;;;;;;30.01;37.26;99512.06;1676670;85;25446;-58
2022/10/07 11:54:27;;;;;;;4.72;4.28;;;;;;;30.07;37.18;99514.59;1616102;88;27716;-56
2022/10/07 11:56:58;;;;;;;5.90;4.65;;;;;;;30.31;37.39;99501.95;1615839;88;25698;-56
2022/10/07 11:59:41;;;;;;;5.22;4.72;;;;;;;30.18;36.62;99497.50;1615823;88;25537;-56
2022/10/07 12:02:32;;;;;;;5.97;4.80;;;;;;;29.92;36.63;99495.66;1616145;88;26335;-58